sensor_id;sensor_type;location;lat;lon;timestamp;P1;durP1;ratioP1;P2;durP2;ratioP2
45867;SDS011;31582;45.490;7.860;2023-01-01T00:00:00;1.25;;;1.25;;
45867;SDS011;31582;45.490;7.860;2023-01-01T00:02:27;1.13;;;1.13;;
45867;SDS011;31582;45.490;7.860;2023-01-01T00:05:02;1.30;;;1.20;;
45867;SDS011;31582;45.490;7.860;2023-01-01T00:07:29;1.27;;;1.27;;
45867;SDS011;31582;45.490;7.860;2023-01-01T00:09:56;1.10;;;1.10;;
45867;SDS011;31582;45.490;7.860;2023-01-01T00:12:41;1.15;;;1.15;;
45867;SDS011;31582;45.490;7.860;2023-01-01T00:15:08;1.10;;;1.10;;
45867;SDS011;31582;45.490;7.860;2023-01-01T00:17:35;1.10;;;1.10;;
45867;SDS011;31582;45.490;7.860;2023-01-01T00:20:02;1.00;;;1.00;;
45867;SDS011;31582;45.490;7.860;2023-01-01T00:22:29;1.05;;;1.05;;
45867;SDS011;31582;45.490;7.860;2023-01-01T00:25:16;1.15;;;1.15;;
45867;SDS011;31582;45.490;7.860;2023-01-01T00:27:51;1.10;;;1.10;;
45867;SDS011;31582;45.490;7.860;2023-01-01T00:30:21;1.02;;;1.02;;
45867;SDS011;31582;45.490;7.860;2023-01-01T00:32:50;1.40;;;1.30;;
45867;SDS011;31582;45.490;7.860;2023-01-01T00:35:22;1.30;;;1.20;;
45867;SDS011;31582;45.490;7.860;2023-01-01T00:37:50;1.30;;;1.20;;
45867;SDS011;31582;45.490;7.860;2023-01-01T00:40:18;1.20;;;1.20;;
45867;SDS011;31582;45.490;7.860;2023-01-01T00:42:45;1.00;;;1.00;;
45867;SDS011;31582;45.490;7.860;2023-01-01T00:45:12;1.00;;;1.00;;
45867;SDS011;31582;45.490;7.860;2023-01-01T00:47:47;1.10;;;1.10;;
45867;SDS011;31582;45.490;7.860;2023-01-01T00:50:15;1.20;;;1.20;;
45867;SDS011;31582;45.490;7.860;2023-01-01T00:52:43;1.23;;;1.20;;
45867;SDS011;31582;45.490;7.860;2023-01-01T00:55:10;1.00;;;1.00;;
45867;SDS011;31582;45.490;7.860;2023-01-01T00:57:37;1.20;;;1.20;;
45867;SDS011;31582;45.490;7.860;2023-01-01T01:00:04;1.23;;;1.13;;
45867;SDS011;31582;45.490;7.860;2023-01-01T01:02:33;0.98;;;0.98;;
45867;SDS011;31582;45.490;7.860;2023-01-01T01:05:00;1.15;;;1.15;;
45867;SDS011;31582;45.490;7.860;2023-01-01T01:07:32;1.20;;;1.20;;
45867;SDS011;31582;45.490;7.860;2023-01-01T01:10:02;1.00;;;1.00;;
45867;SDS011;31582;45.490;7.860;2023-01-01T01:12:29;1.70;;;1.60;;
45867;SDS011;31582;45.490;7.860;2023-01-01T01:14:58;1.73;;;1.63;;
45867;SDS011;31582;45.490;7.860;2023-01-01T01:17:25;1.30;;;1.30;;
45867;SDS011;31582;45.490;7.860;2023-01-01T01:19:52;1.60;;;1.50;;
45867;SDS011;31582;45.490;7.860;2023-01-01T01:22:19;1.10;;;1.10;;
45867;SDS011;31582;45.490;7.860;2023-01-01T01:24:53;1.20;;;1.20;;
45867;SDS011;31582;45.490;7.860;2023-01-01T01:27:20;1.20;;;1.20;;
45867;SDS011;31582;45.490;7.860;2023-01-01T01:29:47;0.98;;;0.98;;
45867;SDS011;31582;45.490;7.860;2023-01-01T01:32:16;1.40;;;1.30;;
45867;SDS011;31582;45.490;7.860;2023-01-01T01:34:47;2.03;;;1.92;;
45867;SDS011;31582;45.490;7.860;2023-01-01T01:37:14;2.00;;;1.90;;
45867;SDS011;31582;45.490;7.860;2023-01-01T01:39:41;2.40;;;2.30;;
45867;SDS011;31582;45.490;7.860;2023-01-01T01:42:14;2.55;;;2.45;;
45867;SDS011;31582;45.490;7.860;2023-01-01T01:49:47;3.20;;;3.00;;
45867;SDS011;31582;45.490;7.860;2023-01-01T01:52:17;3.50;;;3.30;;
45867;SDS011;31582;45.490;7.860;2023-01-01T01:54:44;3.22;;;3.03;;
45867;SDS011;31582;45.490;7.860;2023-01-01T01:57:12;3.22;;;3.13;;
45867;SDS011;31582;45.490;7.860;2023-01-01T01:59:40;2.92;;;2.83;;
45867;SDS011;31582;45.490;7.860;2023-01-01T02:02:19;3.22;;;3.05;;
45867;SDS011;31582;45.490;7.860;2023-01-01T07:33:00;4.90;;;4.63;;
45867;SDS011;31582;45.490;7.860;2023-01-01T07:35:27;4.93;;;4.70;;
45867;SDS011;31582;45.490;7.860;2023-01-01T07:37:54;5.07;;;4.82;;
45867;SDS011;31582;45.490;7.860;2023-01-01T07:40:21;5.30;;;5.00;;
45867;SDS011;31582;45.490;7.860;2023-01-01T07:42:48;5.40;;;5.10;;
45867;SDS011;31582;45.490;7.860;2023-01-01T07:45:15;5.20;;;4.90;;
45867;SDS011;31582;45.490;7.860;2023-01-01T07:47:41;5.32;;;5.03;;
45867;SDS011;31582;45.490;7.860;2023-01-01T07:50:14;5.05;;;4.75;;
45867;SDS011;31582;45.490;7.860;2023-01-01T07:52:42;4.55;;;4.30;;
45867;SDS011;31582;45.490;7.860;2023-01-01T07:55:13;4.90;;;4.63;;
45867;SDS011;31582;45.490;7.860;2023-01-01T07:57:41;4.85;;;4.63;;
45867;SDS011;31582;45.490;7.860;2023-01-01T08:00:10;5.50;;;5.20;;
45867;SDS011;31582;45.490;7.860;2023-01-01T08:02:38;5.20;;;4.90;;
45867;SDS011;31582;45.490;7.860;2023-01-01T08:05:05;5.45;;;5.15;;
45867;SDS011;31582;45.490;7.860;2023-01-01T08:07:33;5.43;;;5.13;;
45867;SDS011;31582;45.490;7.860;2023-01-01T08:10:00;4.95;;;4.75;;
45867;SDS011;31582;45.490;7.860;2023-01-01T08:12:27;5.13;;;4.82;;
45867;SDS011;31582;45.490;7.860;2023-01-01T08:14:54;4.75;;;4.53;;
45867;SDS011;31582;45.490;7.860;2023-01-01T08:17:21;4.47;;;4.28;;
45867;SDS011;31582;45.490;7.860;2023-01-01T08:19:48;5.13;;;4.83;;
45867;SDS011;31582;45.490;7.860;2023-01-01T08:22:17;5.07;;;4.78;;
45867;SDS011;31582;45.490;7.860;2023-01-01T08:24:44;4.78;;;4.55;;
45867;SDS011;31582;45.490;7.860;2023-01-01T08:27:14;5.22;;;4.93;;
45867;SDS011;31582;45.490;7.860;2023-01-01T08:29:42;6.00;;;5.70;;
45867;SDS011;31582;45.490;7.860;2023-01-01T08:32:10;5.77;;;5.43;;
45867;SDS011;31582;45.490;7.860;2023-01-01T08:34:37;5.93;;;5.53;;
45867;SDS011;31582;45.490;7.860;2023-01-01T08:37:05;5.80;;;5.40;;
45867;SDS011;31582;45.490;7.860;2023-01-01T08:39:36;5.90;;;5.53;;
45867;SDS011;31582;45.490;7.860;2023-01-01T08:42:03;5.95;;;5.55;;
45867;SDS011;31582;45.490;7.860;2023-01-01T08:44:37;5.50;;;5.20;;
45867;SDS011;31582;45.490;7.860;2023-01-01T08:47:04;5.32;;;5.03;;
45867;SDS011;31582;45.490;7.860;2023-01-01T08:49:31;5.20;;;4.90;;
45867;SDS011;31582;45.490;7.860;2023-01-01T08:51:58;5.63;;;5.32;;
45867;SDS011;31582;45.490;7.860;2023-01-01T08:54:24;5.63;;;5.32;;
45867;SDS011;31582;45.490;7.860;2023-01-01T08:56:51;5.40;;;5.10;;
45867;SDS011;31582;45.490;7.860;2023-01-01T08:59:18;5.07;;;4.80;;
45867;SDS011;31582;45.490;7.860;2023-01-01T09:01:45;5.47;;;5.18;;
45867;SDS011;31582;45.490;7.860;2023-01-01T09:04:12;5.20;;;4.90;;
45867;SDS011;31582;45.490;7.860;2023-01-01T09:06:41;4.50;;;4.30;;
45867;SDS011;31582;45.490;7.860;2023-01-01T09:09:08;4.93;;;4.65;;
45867;SDS011;31582;45.490;7.860;2023-01-01T09:11:35;4.60;;;4.40;;
45867;SDS011;31582;45.490;7.860;2023-01-01T09:14:02;5.60;;;5.20;;
45867;SDS011;31582;45.490;7.860;2023-01-01T09:16:29;5.28;;;4.97;;
45867;SDS011;31582;45.490;7.860;2023-01-01T09:18:56;5.10;;;4.80;;
45867;SDS011;31582;45.490;7.860;2023-01-01T09:21:23;4.97;;;4.68;;
45867;SDS011;31582;45.490;7.860;2023-01-01T09:23:50;5.00;;;4.63;;
45867;SDS011;31582;45.490;7.860;2023-01-01T09:26:16;4.90;;;4.60;;
45867;SDS011;31582;45.490;7.860;2023-01-01T09:28:43;6.38;;;5.97;;
45867;SDS011;31582;45.490;7.860;2023-01-01T09:31:10;4.75;;;4.55;;
45867;SDS011;31582;45.490;7.860;2023-01-01T09:33:37;5.13;;;4.82;;
45867;SDS011;31582;45.490;7.860;2023-01-01T09:36:11;5.53;;;5.22;;
45867;SDS011;31582;45.490;7.860;2023-01-01T09:38:38;5.88;;;5.57;;
45867;SDS011;31582;45.490;7.860;2023-01-01T09:43:48;5.22;;;4.95;;
45867;SDS011;31582;45.490;7.860;2023-01-01T09:46:36;5.75;;;5.45;;
45867;SDS011;31582;45.490;7.860;2023-01-01T09:49:05;5.40;;;5.10;;
45867;SDS011;31582;45.490;7.860;2023-01-01T09:51:39;5.32;;;5.03;;
45867;SDS011;31582;45.490;7.860;2023-01-01T09:54:30;5.18;;;4.88;;
45867;SDS011;31582;45.490;7.860;2023-01-01T09:57:01;5.70;;;5.40;;
45867;SDS011;31582;45.490;7.860;2023-01-01T09:59:31;5.10;;;4.80;;
45867;SDS011;31582;45.490;7.860;2023-01-01T10:08:19;4.10;;;3.90;;
45867;SDS011;31582;45.490;7.860;2023-01-01T10:14:23;3.92;;;3.72;;
45867;SDS011;31582;45.490;7.860;2023-01-01T10:16:54;4.32;;;4.13;;
45867;SDS011;31582;45.490;7.860;2023-01-01T10:19:30;3.58;;;3.40;;
45867;SDS011;31582;45.490;7.860;2023-01-01T10:22:08;4.00;;;3.80;;
45867;SDS011;31582;45.490;7.860;2023-01-01T10:24:42;3.88;;;3.67;;
45867;SDS011;31582;45.490;7.860;2023-01-01T10:27:44;3.80;;;3.60;;
45867;SDS011;31582;45.490;7.860;2023-01-01T10:30:28;4.28;;;4.07;;
45867;SDS011;31582;45.490;7.860;2023-01-01T10:32:56;4.03;;;3.83;;
45867;SDS011;31582;45.490;7.860;2023-01-01T10:38:00;4.20;;;4.00;;
45867;SDS011;31582;45.490;7.860;2023-01-01T10:40:28;3.80;;;3.60;;
45867;SDS011;31582;45.490;7.860;2023-01-01T10:42:56;4.33;;;4.13;;
45867;SDS011;31582;45.490;7.860;2023-01-01T10:48:09;3.80;;;3.60;;
45867;SDS011;31582;45.490;7.860;2023-01-01T10:50:42;4.10;;;3.90;;
45867;SDS011;31582;45.490;7.860;2023-01-01T10:53:27;4.10;;;3.90;;
45867;SDS011;31582;45.490;7.860;2023-01-01T11:01:11;3.75;;;3.55;;
45867;SDS011;31582;45.490;7.860;2023-01-01T11:06:30;4.00;;;3.80;;
45867;SDS011;31582;45.490;7.860;2023-01-01T11:09:22;4.05;;;3.85;;
45867;SDS011;31582;45.490;7.860;2023-01-01T11:12:02;3.73;;;3.53;;
45867;SDS011;31582;45.490;7.860;2023-01-01T11:14:53;3.70;;;3.50;;
45867;SDS011;31582;45.490;7.860;2023-01-01T11:17:24;3.70;;;3.50;;
45867;SDS011;31582;45.490;7.860;2023-01-01T11:19:54;3.67;;;3.47;;
45867;SDS011;31582;45.490;7.860;2023-01-01T11:25:22;3.55;;;3.35;;
45867;SDS011;31582;45.490;7.860;2023-01-01T11:28:12;3.58;;;3.38;;
45867;SDS011;31582;45.490;7.860;2023-01-01T11:30:55;3.42;;;3.22;;
45867;SDS011;31582;45.490;7.860;2023-01-01T11:33:26;3.70;;;3.50;;
45867;SDS011;31582;45.490;7.860;2023-01-01T11:35:57;3.77;;;3.57;;
45867;SDS011;31582;45.490;7.860;2023-01-01T11:38:24;3.45;;;3.28;;
45867;SDS011;31582;45.490;7.860;2023-01-01T11:40:57;3.78;;;3.58;;
45867;SDS011;31582;45.490;7.860;2023-01-01T11:43:39;3.25;;;3.15;;
45867;SDS011;31582;45.490;7.860;2023-01-01T11:46:09;3.13;;;3.03;;
45867;SDS011;31582;45.490;7.860;2023-01-01T11:48:43;2.90;;;2.80;;
45867;SDS011;31582;45.490;7.860;2023-01-01T11:51:26;3.83;;;3.63;;
45867;SDS011;31582;45.490;7.860;2023-01-01T11:54:10;3.13;;;3.03;;
45867;SDS011;31582;45.490;7.860;2023-01-01T11:57:09;3.10;;;3.00;;
45867;SDS011;31582;45.490;7.860;2023-01-01T11:59:45;3.42;;;3.22;;
45867;SDS011;31582;45.490;7.860;2023-01-01T12:02:17;3.25;;;3.00;;
45867;SDS011;31582;45.490;7.860;2023-01-01T12:05:09;3.13;;;3.03;;
45867;SDS011;31582;45.490;7.860;2023-01-01T12:07:52;3.35;;;3.15;;
45867;SDS011;31582;45.490;7.860;2023-01-01T12:10:21;3.57;;;3.37;;
45867;SDS011;31582;45.490;7.860;2023-01-01T12:13:05;3.53;;;3.33;;
45867;SDS011;31582;45.490;7.860;2023-01-01T12:15:37;3.70;;;3.50;;
45867;SDS011;31582;45.490;7.860;2023-01-01T12:18:15;3.95;;;3.75;;
45867;SDS011;31582;45.490;7.860;2023-01-01T12:20:48;4.00;;;3.80;;
45867;SDS011;31582;45.490;7.860;2023-01-01T12:23:29;4.03;;;3.83;;
45867;SDS011;31582;45.490;7.860;2023-01-01T12:32:09;3.45;;;3.28;;
45867;SDS011;31582;45.490;7.860;2023-01-01T12:34:51;3.70;;;3.50;;
45867;SDS011;31582;45.490;7.860;2023-01-01T12:37:47;3.72;;;3.53;;
45867;SDS011;31582;45.490;7.860;2023-01-01T12:43:02;3.70;;;3.50;;
45867;SDS011;31582;45.490;7.860;2023-01-01T12:48:43;3.80;;;3.60;;
45867;SDS011;31582;45.490;7.860;2023-01-01T12:59:53;3.20;;;3.08;;
45867;SDS011;31582;45.490;7.860;2023-01-01T13:02:23;3.13;;;2.92;;
45867;SDS011;31582;45.490;7.860;2023-01-01T13:05:06;3.35;;;3.15;;
45867;SDS011;31582;45.490;7.860;2023-01-01T13:07:42;2.80;;;2.70;;
45867;SDS011;31582;45.490;7.860;2023-01-01T13:12:44;3.13;;;3.00;;
45867;SDS011;31582;45.490;7.860;2023-01-01T13:18:07;3.15;;;2.95;;
45867;SDS011;31582;45.490;7.860;2023-01-01T13:29:06;3.07;;;2.97;;
45867;SDS011;31582;45.490;7.860;2023-01-01T13:45:14;3.42;;;3.22;;
45867;SDS011;31582;45.490;7.860;2023-01-01T13:48:12;3.28;;;3.15;;
45867;SDS011;31582;45.490;7.860;2023-01-01T13:58:43;3.13;;;2.92;;
45867;SDS011;31582;45.490;7.860;2023-01-01T14:01:48;2.55;;;2.45;;
45867;SDS011;31582;45.490;7.860;2023-01-01T14:07:28;3.00;;;2.80;;
45867;SDS011;31582;45.490;7.860;2023-01-01T14:12:46;3.10;;;3.00;;
45867;SDS011;31582;45.490;7.860;2023-01-01T14:15:24;3.80;;;3.60;;
45867;SDS011;31582;45.490;7.860;2023-01-01T14:18:28;2.85;;;2.75;;
45867;SDS011;31582;45.490;7.860;2023-01-01T14:20:58;3.40;;;3.20;;
45867;SDS011;31582;45.490;7.860;2023-01-01T14:23:30;2.67;;;2.58;;
45867;SDS011;31582;45.490;7.860;2023-01-01T14:26:01;2.75;;;2.65;;
45867;SDS011;31582;45.490;7.860;2023-01-01T14:28:32;3.13;;;2.97;;
45867;SDS011;31582;45.490;7.860;2023-01-01T14:31:00;3.03;;;2.83;;
45867;SDS011;31582;45.490;7.860;2023-01-01T14:33:36;2.88;;;2.78;;
45867;SDS011;31582;45.490;7.860;2023-01-01T14:36:05;2.85;;;2.72;;
45867;SDS011;31582;45.490;7.860;2023-01-01T14:38:53;2.35;;;2.25;;
45867;SDS011;31582;45.490;7.860;2023-01-01T14:43:57;2.70;;;2.60;;
45867;SDS011;31582;45.490;7.860;2023-01-01T14:46:45;2.80;;;2.70;;
45867;SDS011;31582;45.490;7.860;2023-01-01T14:49:15;2.83;;;2.72;;
45867;SDS011;31582;45.490;7.860;2023-01-01T14:52:07;2.95;;;2.78;;
45867;SDS011;31582;45.490;7.860;2023-01-01T14:54:40;2.60;;;2.50;;
45867;SDS011;31582;45.490;7.860;2023-01-01T14:57:10;2.85;;;2.75;;
45867;SDS011;31582;45.490;7.860;2023-01-01T14:59:46;2.60;;;2.50;;
45867;SDS011;31582;45.490;7.860;2023-01-01T15:02:16;2.50;;;2.40;;
45867;SDS011;31582;45.490;7.860;2023-01-01T15:04:47;2.70;;;2.50;;
45867;SDS011;31582;45.490;7.860;2023-01-01T15:07:21;2.58;;;2.47;;
45867;SDS011;31582;45.490;7.860;2023-01-01T15:09:53;2.85;;;2.65;;
45867;SDS011;31582;45.490;7.860;2023-01-01T15:12:22;2.58;;;2.47;;
45867;SDS011;31582;45.490;7.860;2023-01-01T15:14:50;2.70;;;2.58;;
45867;SDS011;31582;45.490;7.860;2023-01-01T15:17:22;2.80;;;2.60;;
45867;SDS011;31582;45.490;7.860;2023-01-01T15:20:01;2.20;;;2.10;;
45867;SDS011;31582;45.490;7.860;2023-01-01T15:22:34;2.58;;;2.47;;
45867;SDS011;31582;45.490;7.860;2023-01-01T15:25:10;2.20;;;2.10;;
45867;SDS011;31582;45.490;7.860;2023-01-01T15:27:39;2.20;;;2.10;;
45867;SDS011;31582;45.490;7.860;2023-01-01T15:30:06;2.20;;;2.10;;
45867;SDS011;31582;45.490;7.860;2023-01-01T15:32:46;2.40;;;2.30;;
45867;SDS011;31582;45.490;7.860;2023-01-01T15:35:31;2.60;;;2.47;;
45867;SDS011;31582;45.490;7.860;2023-01-01T15:38:00;2.45;;;2.35;;
45867;SDS011;31582;45.490;7.860;2023-01-01T15:40:44;2.83;;;2.72;;
45867;SDS011;31582;45.490;7.860;2023-01-01T15:43:22;3.20;;;3.10;;
45867;SDS011;31582;45.490;7.860;2023-01-01T15:45:51;3.30;;;3.10;;
45867;SDS011;31582;45.490;7.860;2023-01-01T15:48:36;6.55;;;6.10;;
45867;SDS011;31582;45.490;7.860;2023-01-01T15:51:16;4.93;;;4.63;;
45867;SDS011;31582;45.490;7.860;2023-01-01T15:56:19;4.57;;;4.30;;
45867;SDS011;31582;45.490;7.860;2023-01-01T16:01:34;3.83;;;3.63;;
45867;SDS011;31582;45.490;7.860;2023-01-01T16:06:33;3.70;;;3.50;;
45867;SDS011;31582;45.490;7.860;2023-01-01T16:09:15;3.78;;;3.58;;
45867;SDS011;31582;45.490;7.860;2023-01-01T16:11:43;3.70;;;3.50;;
45867;SDS011;31582;45.490;7.860;2023-01-01T16:14:10;3.80;;;3.60;;
45867;SDS011;31582;45.490;7.860;2023-01-01T16:16:38;3.47;;;3.27;;
45867;SDS011;31582;45.490;7.860;2023-01-01T16:19:17;3.80;;;3.60;;
45867;SDS011;31582;45.490;7.860;2023-01-01T16:21:44;4.13;;;3.83;;
45867;SDS011;31582;45.490;7.860;2023-01-01T16:24:15;3.90;;;3.70;;
45867;SDS011;31582;45.490;7.860;2023-01-01T16:26:43;3.50;;;3.30;;
45867;SDS011;31582;45.490;7.860;2023-01-01T16:29:11;3.63;;;3.42;;
45867;SDS011;31582;45.490;7.860;2023-01-01T16:31:38;3.70;;;3.50;;
45867;SDS011;31582;45.490;7.860;2023-01-01T16:34:05;3.75;;;3.55;;
45867;SDS011;31582;45.490;7.860;2023-01-01T16:36:34;4.13;;;3.92;;
45867;SDS011;31582;45.490;7.860;2023-01-01T16:39:01;4.00;;;3.80;;
45867;SDS011;31582;45.490;7.860;2023-01-01T16:41:28;4.28;;;4.07;;
45867;SDS011;31582;45.490;7.860;2023-01-01T16:43:55;4.35;;;4.07;;
45867;SDS011;31582;45.490;7.860;2023-01-01T16:46:22;4.78;;;4.50;;
45867;SDS011;31582;45.490;7.860;2023-01-01T16:48:49;4.60;;;4.38;;
45867;SDS011;31582;45.490;7.860;2023-01-01T16:51:18;5.40;;;4.93;;
45867;SDS011;31582;45.490;7.860;2023-01-01T16:53:49;5.15;;;4.85;;
45867;SDS011;31582;45.490;7.860;2023-01-01T16:56:16;4.47;;;4.28;;
45867;SDS011;31582;45.490;7.860;2023-01-01T16:58:43;4.75;;;4.45;;
45867;SDS011;31582;45.490;7.860;2023-01-01T17:01:16;4.60;;;4.40;;
45867;SDS011;31582;45.490;7.860;2023-01-01T17:03:43;4.20;;;4.00;;
45867;SDS011;31582;45.490;7.860;2023-01-01T17:06:10;5.13;;;4.82;;
45867;SDS011;31582;45.490;7.860;2023-01-01T17:08:37;4.70;;;4.40;;
45867;SDS011;31582;45.490;7.860;2023-01-01T17:11:12;5.03;;;4.72;;
45867;SDS011;31582;45.490;7.860;2023-01-01T17:13:40;6.68;;;6.28;;
45867;SDS011;31582;45.490;7.860;2023-01-01T17:16:10;5.47;;;5.18;;
45867;SDS011;31582;45.490;7.860;2023-01-01T17:18:37;5.18;;;4.88;;
45867;SDS011;31582;45.490;7.860;2023-01-01T17:21:24;4.30;;;4.10;;
45867;SDS011;31582;45.490;7.860;2023-01-01T17:23:51;3.97;;;3.75;;
45867;SDS011;31582;45.490;7.860;2023-01-01T17:26:19;4.30;;;4.10;;
45867;SDS011;31582;45.490;7.860;2023-01-01T17:28:49;4.10;;;3.88;;
45867;SDS011;31582;45.490;7.860;2023-01-01T17:31:25;4.40;;;4.10;;
45867;SDS011;31582;45.490;7.860;2023-01-01T17:33:54;3.88;;;3.67;;
45867;SDS011;31582;45.490;7.860;2023-01-01T17:36:21;4.00;;;3.80;;
45867;SDS011;31582;45.490;7.860;2023-01-01T17:38:49;3.80;;;3.60;;
45867;SDS011;31582;45.490;7.860;2023-01-01T17:41:16;4.60;;;4.30;;
45867;SDS011;31582;45.490;7.860;2023-01-01T17:43:44;4.35;;;4.05;;
45867;SDS011;31582;45.490;7.860;2023-01-01T17:46:13;3.97;;;3.77;;
45867;SDS011;31582;45.490;7.860;2023-01-01T17:48:48;4.18;;;3.97;;
45867;SDS011;31582;45.490;7.860;2023-01-01T17:51:19;4.70;;;4.40;;
45867;SDS011;31582;45.490;7.860;2023-01-01T17:53:46;4.90;;;4.60;;
45867;SDS011;31582;45.490;7.860;2023-01-01T17:56:14;5.13;;;4.82;;
45867;SDS011;31582;45.490;7.860;2023-01-01T17:58:42;3.85;;;3.65;;
45867;SDS011;31582;45.490;7.860;2023-01-01T18:03:50;4.07;;;3.88;;
45867;SDS011;31582;45.490;7.860;2023-01-01T18:06:19;4.80;;;4.50;;
45867;SDS011;31582;45.490;7.860;2023-01-01T18:08:47;4.40;;;4.20;;
45867;SDS011;31582;45.490;7.860;2023-01-01T18:11:14;4.13;;;3.93;;
45867;SDS011;31582;45.490;7.860;2023-01-01T18:13:41;4.22;;;4.03;;
45867;SDS011;31582;45.490;7.860;2023-01-01T18:16:08;4.03;;;3.83;;
45867;SDS011;31582;45.490;7.860;2023-01-01T18:18:36;5.00;;;4.70;;
45867;SDS011;31582;45.490;7.860;2023-01-01T18:21:04;4.47;;;4.18;;
45867;SDS011;31582;45.490;7.860;2023-01-01T18:23:47;4.18;;;3.97;;
45867;SDS011;31582;45.490;7.860;2023-01-01T18:26:15;4.53;;;4.22;;
45867;SDS011;31582;45.490;7.860;2023-01-01T18:28:43;3.70;;;3.50;;
45867;SDS011;31582;45.490;7.860;2023-01-01T18:31:11;4.95;;;4.65;;
45867;SDS011;31582;45.490;7.860;2023-01-01T18:33:39;4.53;;;4.23;;
45867;SDS011;31582;45.490;7.860;2023-01-01T18:36:07;4.20;;;4.00;;
45867;SDS011;31582;45.490;7.860;2023-01-01T18:38:39;3.92;;;3.72;;
45867;SDS011;31582;45.490;7.860;2023-01-01T18:41:22;4.40;;;4.13;;
45867;SDS011;31582;45.490;7.860;2023-01-01T18:43:52;3.73;;;3.53;;
45867;SDS011;31582;45.490;7.860;2023-01-01T18:46:19;4.25;;;4.05;;
45867;SDS011;31582;45.490;7.860;2023-01-01T18:48:48;4.35;;;4.07;;
45867;SDS011;31582;45.490;7.860;2023-01-01T18:51:24;3.90;;;3.70;;
45867;SDS011;31582;45.490;7.860;2023-01-01T18:53:55;3.83;;;3.63;;
45867;SDS011;31582;45.490;7.860;2023-01-01T18:56:24;4.20;;;4.00;;
45867;SDS011;31582;45.490;7.860;2023-01-01T18:58:51;3.67;;;3.47;;
45867;SDS011;31582;45.490;7.860;2023-01-01T19:01:22;4.45;;;4.20;;
45867;SDS011;31582;45.490;7.860;2023-01-01T19:03:50;4.35;;;4.10;;
45867;SDS011;31582;45.490;7.860;2023-01-01T19:06:28;3.73;;;3.53;;
45867;SDS011;31582;45.490;7.860;2023-01-01T19:11:46;4.15;;;3.95;;
45867;SDS011;31582;45.490;7.860;2023-01-01T19:14:15;4.72;;;4.45;;
45867;SDS011;31582;45.490;7.860;2023-01-01T19:16:44;5.10;;;4.80;;
45867;SDS011;31582;45.490;7.860;2023-01-01T19:21:53;5.10;;;4.80;;
45867;SDS011;31582;45.490;7.860;2023-01-01T19:24:27;4.00;;;3.80;;
45867;SDS011;31582;45.490;7.860;2023-01-01T19:26:57;4.93;;;4.63;;
45867;SDS011;31582;45.490;7.860;2023-01-01T19:29:39;4.80;;;4.50;;
45867;SDS011;31582;45.490;7.860;2023-01-01T19:32:08;4.43;;;4.13;;
45867;SDS011;31582;45.490;7.860;2023-01-01T19:34:35;4.10;;;3.90;;
45867;SDS011;31582;45.490;7.860;2023-01-01T19:37:04;3.78;;;3.58;;
45867;SDS011;31582;45.490;7.860;2023-01-01T19:39:31;4.60;;;4.30;;
45867;SDS011;31582;45.490;7.860;2023-01-01T19:42:00;4.32;;;4.07;;
45867;SDS011;31582;45.490;7.860;2023-01-01T19:44:33;3.90;;;3.70;;
45867;SDS011;31582;45.490;7.860;2023-01-01T19:47:01;5.07;;;4.78;;
45867;SDS011;31582;45.490;7.860;2023-01-01T19:49:30;4.70;;;4.50;;
45867;SDS011;31582;45.490;7.860;2023-01-01T19:51:57;4.72;;;4.43;;
45867;SDS011;31582;45.490;7.860;2023-01-01T19:54:24;4.65;;;4.38;;
45867;SDS011;31582;45.490;7.860;2023-01-01T19:56:51;4.10;;;3.90;;
45867;SDS011;31582;45.490;7.860;2023-01-01T19:59:18;3.80;;;3.60;;
45867;SDS011;31582;45.490;7.860;2023-01-01T20:01:45;3.80;;;3.60;;
45867;SDS011;31582;45.490;7.860;2023-01-01T20:04:32;4.35;;;4.13;;
45867;SDS011;31582;45.490;7.860;2023-01-01T20:06:59;4.67;;;4.37;;
45867;SDS011;31582;45.490;7.860;2023-01-01T20:09:26;3.90;;;3.70;;
45867;SDS011;31582;45.490;7.860;2023-01-01T20:11:53;3.67;;;3.47;;
45867;SDS011;31582;45.490;7.860;2023-01-01T20:14:20;3.40;;;3.20;;
45867;SDS011;31582;45.490;7.860;2023-01-01T20:16:46;3.67;;;3.47;;
45867;SDS011;31582;45.490;7.860;2023-01-01T20:19:16;4.00;;;3.80;;
45867;SDS011;31582;45.490;7.860;2023-01-01T20:21:42;4.53;;;4.30;;
45867;SDS011;31582;45.490;7.860;2023-01-01T20:24:28;4.75;;;4.45;;
45867;SDS011;31582;45.490;7.860;2023-01-01T20:26:55;3.70;;;3.50;;
45867;SDS011;31582;45.490;7.860;2023-01-01T20:29:22;4.00;;;3.80;;
45867;SDS011;31582;45.490;7.860;2023-01-01T20:31:51;4.10;;;3.90;;
45867;SDS011;31582;45.490;7.860;2023-01-01T20:34:19;4.07;;;3.88;;
45867;SDS011;31582;45.490;7.860;2023-01-01T20:36:47;3.95;;;3.75;;
45867;SDS011;31582;45.490;7.860;2023-01-01T20:39:32;3.70;;;3.50;;
45867;SDS011;31582;45.490;7.860;2023-01-01T20:41:59;3.97;;;3.78;;
45867;SDS011;31582;45.490;7.860;2023-01-01T20:44:26;4.90;;;4.60;;
45867;SDS011;31582;45.490;7.860;2023-01-01T20:46:53;4.22;;;4.03;;
45867;SDS011;31582;45.490;7.860;2023-01-01T20:49:20;3.45;;;3.30;;
45867;SDS011;31582;45.490;7.860;2023-01-01T20:51:51;3.60;;;3.40;;
45867;SDS011;31582;45.490;7.860;2023-01-01T20:54:19;3.97;;;3.78;;
45867;SDS011;31582;45.490;7.860;2023-01-01T20:56:49;3.90;;;3.70;;
45867;SDS011;31582;45.490;7.860;2023-01-01T20:59:17;4.53;;;4.25;;
45867;SDS011;31582;45.490;7.860;2023-01-01T21:02:03;4.43;;;4.22;;
45867;SDS011;31582;45.490;7.860;2023-01-01T21:04:32;4.50;;;4.20;;
45867;SDS011;31582;45.490;7.860;2023-01-01T21:07:05;4.50;;;4.30;;
45867;SDS011;31582;45.490;7.860;2023-01-01T21:09:33;3.80;;;3.60;;
45867;SDS011;31582;45.490;7.860;2023-01-01T21:12:00;4.82;;;4.53;;
45867;SDS011;31582;45.490;7.860;2023-01-01T21:14:27;4.63;;;4.32;;
45867;SDS011;31582;45.490;7.860;2023-01-01T21:16:54;4.28;;;4.00;;
45867;SDS011;31582;45.490;7.860;2023-01-01T21:19:21;3.97;;;3.78;;
45867;SDS011;31582;45.490;7.860;2023-01-01T21:21:53;3.90;;;3.70;;
45867;SDS011;31582;45.490;7.860;2023-01-01T21:24:26;4.50;;;4.20;;
45867;SDS011;31582;45.490;7.860;2023-01-01T21:26:55;4.10;;;3.90;;
45867;SDS011;31582;45.490;7.860;2023-01-01T21:29:34;4.57;;;4.35;;
45867;SDS011;31582;45.490;7.860;2023-01-01T21:34:52;4.47;;;4.28;;
45867;SDS011;31582;45.490;7.860;2023-01-01T21:43:32;4.05;;;3.85;;
45867;SDS011;31582;45.490;7.860;2023-01-01T21:48:32;3.97;;;3.78;;
45867;SDS011;31582;45.490;7.860;2023-01-01T21:51:01;4.70;;;4.40;;
45867;SDS011;31582;45.490;7.860;2023-01-01T21:53:35;4.40;;;4.10;;
45867;SDS011;31582;45.490;7.860;2023-01-01T21:56:03;4.72;;;4.43;;
45867;SDS011;31582;45.490;7.860;2023-01-01T21:58:52;4.93;;;4.63;;
45867;SDS011;31582;45.490;7.860;2023-01-01T22:01:39;4.75;;;4.45;;
45867;SDS011;31582;45.490;7.860;2023-01-01T22:06:36;4.50;;;4.20;;
45867;SDS011;31582;45.490;7.860;2023-01-01T22:09:10;4.32;;;4.13;;
45867;SDS011;31582;45.490;7.860;2023-01-01T22:11:39;3.97;;;3.78;;
45867;SDS011;31582;45.490;7.860;2023-01-01T22:14:17;4.47;;;4.25;;
45867;SDS011;31582;45.490;7.860;2023-01-01T22:16:46;4.55;;;4.25;;
45867;SDS011;31582;45.490;7.860;2023-01-01T22:19:21;3.72;;;3.53;;
45867;SDS011;31582;45.490;7.860;2023-01-01T22:21:49;3.80;;;3.60;;
45867;SDS011;31582;45.490;7.860;2023-01-01T22:24:23;4.97;;;4.68;;
45867;SDS011;31582;45.490;7.860;2023-01-01T22:26:57;4.80;;;4.50;;
45867;SDS011;31582;45.490;7.860;2023-01-01T22:29:47;5.45;;;5.05;;
45867;SDS011;31582;45.490;7.860;2023-01-01T22:32:25;5.00;;;4.70;;
45867;SDS011;31582;45.490;7.860;2023-01-01T22:34:58;4.90;;;4.60;;
45867;SDS011;31582;45.490;7.860;2023-01-01T22:37:38;4.00;;;3.80;;
45867;SDS011;31582;45.490;7.860;2023-01-01T22:40:09;4.90;;;4.60;;
45867;SDS011;31582;45.490;7.860;2023-01-01T22:42:46;4.00;;;3.80;;
45867;SDS011;31582;45.490;7.860;2023-01-01T22:45:14;4.32;;;4.13;;
45867;SDS011;31582;45.490;7.860;2023-01-01T22:47:42;5.15;;;4.85;;
45867;SDS011;31582;45.490;7.860;2023-01-01T22:50:15;5.17;;;4.87;;